createdAt,value
2022-11-06T00:00:33.727Z,957.0261841
2022-11-06T00:01:34.572Z,957.0970459
2022-11-06T00:02:35.323Z,957.1135864
2022-11-06T00:03:36.007Z,957.131897
2022-11-06T00:04:36.654Z,957.1526489
2022-11-06T00:05:37.321Z,957.1618042
2022-11-06T00:06:38.515Z,957.1688843
2022-11-06T00:08:10.447Z,957.1628418
2022-11-06T00:09:10.800Z,957.1820068
2022-11-06T00:10:11.998Z,957.1798706
2022-11-06T00:11:12.662Z,957.1345215
2022-11-06T00:12:13.389Z,957.1400146
2022-11-06T00:13:14.015Z,957.1619263
2022-11-06T00:14:14.676Z,957.2043457
2022-11-06T00:15:15.260Z,957.2323608
2022-11-06T00:16:15.983Z,957.260376
2022-11-06T00:17:16.640Z,957.3242798
2022-11-06T00:18:17.349Z,957.3499146
2022-11-06T00:19:18.900Z,957.3879395
2022-11-06T00:20:19.535Z,957.4199829
2022-11-06T00:21:20.897Z,957.4655762
2022-11-06T00:22:21.459Z,957.480835
2022-11-06T00:23:22.195Z,957.4718628
2022-11-06T00:24:22.815Z,957.4528198
2022-11-06T00:25:23.469Z,957.4103394
2022-11-06T00:26:25.021Z,957.3588867
2022-11-06T00:27:25.605Z,957.3019409
2022-11-06T00:28:26.243Z,957.2867432
2022-11-06T00:29:27.892Z,957.227356
2022-11-06T00:30:28.513Z,957.2601318
2022-11-06T00:31:29.231Z,957.2577515
2022-11-06T00:32:29.862Z,957.2765503
2022-11-06T00:33:30.474Z,957.3292236
2022-11-06T00:34:31.130Z,957.4037476
2022-11-06T00:35:31.627Z,957.4442139
2022-11-06T00:36:32.273Z,957.4334106
2022-11-06T00:37:32.814Z,957.4268188
2022-11-06T00:38:33.407Z,957.4249878
2022-11-06T00:39:34.049Z,957.3459473
2022-11-06T00:40:35.333Z,957.3187256
2022-11-06T00:41:35.944Z,957.2661743
2022-11-06T00:42:36.490Z,957.180603
2022-11-06T00:43:37.087Z,957.1251831
2022-11-06T00:44:38.277Z,957.0340576
2022-11-06T00:46:09.234Z,956.9313965
2022-11-06T00:47:09.869Z,956.9378052
2022-11-06T00:48:10.814Z,956.9519653
2022-11-06T00:49:11.776Z,956.9771729
2022-11-06T00:50:12.419Z,956.9576416
2022-11-06T00:51:13.047Z,956.9762573
2022-11-06T00:52:13.733Z,956.9453125
2022-11-06T00:53:15.240Z,956.9957886
2022-11-06T00:54:15.951Z,956.9840088
2022-11-06T00:55:16.741Z,956.9834595
2022-11-06T00:56:17.398Z,956.9765015
2022-11-06T00:57:18.144Z,957.0129395
2022-11-06T00:58:18.753Z,956.9753418
2022-11-06T00:59:20.323Z,956.9649048
2022-11-06T01:00:21.059Z,956.9799805
2022-11-06T01:01:21.758Z,956.9187622
2022-11-06T01:02:22.452Z,956.8817139
2022-11-06T01:03:23.023Z,956.854248
2022-11-06T01:04:23.746Z,956.9067993
2022-11-06T01:05:24.446Z,956.9159546
2022-11-06T01:06:25.132Z,956.9642334
2022-11-06T01:07:25.763Z,956.9458008
2022-11-06T01:08:26.418Z,956.97052
2022-11-06T01:09:27.923Z,956.9464111
2022-11-06T01:10:28.533Z,956.9539185
2022-11-06T01:11:37.505Z,956.9589233
2022-11-06T01:12:30.242Z,956.9389038
2022-11-06T01:13:30.905Z,956.9138794
2022-11-06T01:14:32.422Z,956.8778076
2022-11-06T01:15:33.048Z,956.8745117
2022-11-06T01:16:33.613Z,956.8520508
2022-11-06T01:17:34.261Z,956.8754883
2022-11-06T01:18:34.897Z,956.8204956
2022-11-06T01:19:36.312Z,956.7991943
2022-11-06T01:20:36.928Z,956.7427979
2022-11-06T01:22:08.273Z,956.770752
2022-11-06T01:23:08.983Z,956.8265381
2022-11-06T01:24:09.677Z,956.8728027
2022-11-06T01:25:10.295Z,956.8632202
2022-11-06T01:26:10.994Z,956.8555298
2022-11-06T01:27:27.780Z,956.8682861
2022-11-06T01:28:13.132Z,956.8479004
2022-11-06T01:29:14.489Z,956.8395386
2022-11-06T01:30:15.091Z,956.8228149
2022-11-06T01:31:15.746Z,956.7857666
2022-11-06T01:32:16.328Z,956.7659302
2022-11-06T01:33:16.977Z,956.7613525
2022-11-06T01:34:17.923Z,956.7423706
2022-11-06T01:35:18.554Z,956.6901855
2022-11-06T01:36:19.159Z,956.6496582
2022-11-06T01:37:19.752Z,956.663147
2022-11-06T01:38:20.768Z,956.690918
2022-11-06T01:39:22.026Z,956.6269531
2022-11-06T01:40:22.697Z,956.6124878
2022-11-06T01:41:23.318Z,956.565918
2022-11-06T01:42:23.989Z,956.5471191
2022-11-06T01:43:24.667Z,956.5617065
2022-11-06T01:44:25.507Z,956.524231
2022-11-06T01:45:26.122Z,956.5115356
2022-11-06T01:46:26.827Z,956.5303345
2022-11-06T01:47:27.450Z,956.5708618
2022-11-06T01:48:28.021Z,956.5209351
2022-11-06T01:49:29.522Z,956.5321655
2022-11-06T01:50:30.151Z,956.524231
2022-11-06T01:51:30.805Z,956.491394
2022-11-06T01:52:31.426Z,956.4309082
2022-11-06T01:53:32.065Z,956.3357544
2022-11-06T01:54:32.786Z,956.3627319
2022-11-06T01:55:33.354Z,956.3013916
2022-11-06T01:56:34.550Z,956.3065796
2022-11-06T01:57:35.121Z,956.305481
2022-11-06T01:58:35.705Z,956.3446045
2022-11-06T01:59:36.987Z,956.2438965
2022-11-06T02:01:07.903Z,956.2301636
2022-11-06T02:02:08.594Z,956.21875
2022-11-06T02:03:09.214Z,956.2385864
2022-11-06T02:04:09.735Z,956.2159424
2022-11-06T02:05:10.320Z,956.2382813
2022-11-06T02:06:10.891Z,956.2722168
2022-11-06T02:07:11.505Z,956.3453369
2022-11-06T02:08:12.428Z,956.355835
2022-11-06T02:09:13.482Z,956.3464355
2022-11-06T02:10:14.095Z,956.2990723
2022-11-06T02:11:15.513Z,956.3088989
2022-11-06T02:12:16.114Z,956.3051758
2022-11-06T02:13:16.764Z,956.2874146
2022-11-06T02:14:17.363Z,956.2825928
2022-11-06T02:15:17.978Z,956.3164063
2022-11-06T02:16:18.748Z,956.3423462
2022-11-06T02:17:19.351Z,956.2993774
2022-11-06T02:18:19.990Z,956.2408447
2022-11-06T02:19:21.548Z,956.2296143
2022-11-06T02:20:22.177Z,956.2254639
2022-11-06T02:21:22.814Z,956.1845093
2022-11-06T02:22:23.449Z,956.1931152
2022-11-06T02:23:24.042Z,956.1898193
2022-11-06T02:24:24.674Z,956.241272
2022-11-06T02:25:25.344Z,956.2146606
2022-11-06T02:26:26.044Z,956.2230225
2022-11-06T02:27:26.656Z,956.1637573
2022-11-06T02:28:27.225Z,956.1560669
2022-11-06T02:29:28.545Z,956.0722046
2022-11-06T02:30:29.137Z,956.0338135
2022-11-06T02:31:29.724Z,956.0203247
2022-11-06T02:32:30.353Z,956.0074463
2022-11-06T02:33:31.042Z,955.9703369
2022-11-06T02:34:31.744Z,955.9227905
2022-11-06T02:35:32.364Z,955.897522
2022-11-06T02:36:33.088Z,955.9115601
2022-11-06T02:37:33.743Z,955.8986206
2022-11-06T02:38:34.306Z,955.8612671
2022-11-06T02:39:35.527Z,955.8970947
2022-11-06T02:40:36.242Z,955.9202881
2022-11-06T02:42:07.320Z,955.9534302
2022-11-06T02:43:08.039Z,955.9345093
2022-11-06T02:44:08.706Z,955.9385986
2022-11-06T02:45:09.341Z,955.9190674
2022-11-06T02:46:10.062Z,955.9066162
2022-11-06T02:47:10.656Z,955.8848267
2022-11-06T02:48:11.673Z,955.8336182
2022-11-06T02:49:11.845Z,955.8320313
2022-11-06T02:50:13.284Z,955.8404541
2022-11-06T02:51:13.967Z,955.8572388
2022-11-06T02:52:14.555Z,955.8172607
2022-11-06T02:53:15.205Z,955.8150024
2022-11-06T02:54:15.881Z,955.8471069
2022-11-06T02:55:16.526Z,955.8786621
2022-11-06T02:56:17.333Z,955.8972778
2022-11-06T02:57:18.799Z,955.8877563
2022-11-06T02:58:19.537Z,955.8432617
2022-11-06T02:59:20.109Z,955.8538818
2022-11-06T03:00:21.239Z,955.8163452
2022-11-06T03:01:22.009Z,955.8259888
2022-11-06T03:02:22.731Z,955.8496704
2022-11-06T03:03:23.208Z,955.8881226
2022-11-06T03:04:23.887Z,955.9138794
2022-11-06T03:05:24.471Z,955.9315796
2022-11-06T03:06:25.206Z,955.9487305
2022-11-06T03:07:25.802Z,955.9209595
2022-11-06T03:08:26.388Z,955.9193115
2022-11-06T03:09:26.973Z,955.862793
2022-11-06T03:10:28.332Z,955.8492432
2022-11-06T03:11:29.010Z,955.7948608
2022-11-06T03:12:29.610Z,955.8035278
2022-11-06T03:13:30.329Z,955.8356934
2022-11-06T03:14:30.942Z,955.8301392
2022-11-06T03:15:31.563Z,955.8206177
2022-11-06T03:16:32.222Z,955.7999878
2022-11-06T03:17:32.864Z,955.7109375
2022-11-06T03:18:33.430Z,955.7277832
2022-11-06T03:19:34.023Z,955.7075195
2022-11-06T03:20:35.252Z,955.7510986
2022-11-06T03:21:36.263Z,955.7468872
2022-11-06T03:23:07.215Z,955.7137451
2022-11-06T03:24:07.885Z,955.7421875
2022-11-06T03:25:08.434Z,955.7619019
2022-11-06T03:26:09.080Z,955.7424927
2022-11-06T03:27:10.512Z,955.7757568
2022-11-06T03:28:11.561Z,955.7396851
2022-11-06T03:29:11.898Z,955.7242432
2022-11-06T03:30:16.486Z,955.7338867
2022-11-06T03:31:14.240Z,955.7510376
2022-11-06T03:32:14.924Z,955.7719727
2022-11-06T03:33:15.589Z,955.7976685
2022-11-06T03:34:16.268Z,955.8401489
2022-11-06T03:35:16.896Z,955.8110962
2022-11-06T03:36:17.505Z,955.7843628
2022-11-06T03:37:18.187Z,955.8117065
2022-11-06T03:38:18.799Z,955.8272705
2022-11-06T03:39:20.039Z,955.814209
2022-11-06T03:40:21.520Z,955.847168
2022-11-06T03:41:22.251Z,955.8482666
2022-11-06T03:42:22.931Z,955.8137207
2022-11-06T03:43:23.564Z,955.8149414
2022-11-06T03:44:24.321Z,955.7949829
2022-11-06T03:45:24.918Z,955.7868652
2022-11-06T03:46:25.537Z,955.7729492
2022-11-06T03:47:26.222Z,955.7620239
2022-11-06T03:48:26.869Z,955.7876587
2022-11-06T03:49:27.502Z,955.7472534
2022-11-06T03:50:29.033Z,955.7490845
2022-11-06T03:51:29.644Z,955.6779175
2022-11-06T03:52:30.276Z,955.6515503
2022-11-06T03:53:30.884Z,955.6326294
2022-11-06T03:54:31.544Z,955.6741943
2022-11-06T03:55:32.174Z,955.6470337
2022-11-06T03:56:32.745Z,955.6239014
2022-11-06T03:57:33.337Z,955.6581421
2022-11-06T03:58:34.030Z,955.694397
2022-11-06T03:59:34.570Z,955.7531738
2022-11-06T04:01:06.216Z,955.7956543
2022-11-06T04:02:06.892Z,955.7842407
2022-11-06T04:03:07.470Z,955.8071289
2022-11-06T04:04:08.013Z,955.8284302
2022-11-06T04:05:08.756Z,955.8120117
2022-11-06T04:06:10.320Z,955.7927246
2022-11-06T04:07:11.020Z,955.8070068
2022-11-06T04:08:12.028Z,955.7337646
2022-11-06T04:09:12.280Z,955.7416382
2022-11-06T04:10:13.547Z,955.7141113
2022-11-06T04:11:14.152Z,955.6986084
2022-11-06T04:12:14.730Z,955.6265869
2022-11-06T04:13:15.679Z,955.6668091
2022-11-06T04:14:16.325Z,955.6715088
2022-11-06T04:15:17.025Z,955.642334
2022-11-06T04:16:17.662Z,955.6309204
2022-11-06T04:17:18.297Z,955.625061
2022-11-06T04:18:18.955Z,955.6201782
2022-11-06T04:19:19.628Z,955.6034546
2022-11-06T04:20:21.041Z,955.6279907
2022-11-06T04:21:21.625Z,955.6040649
2022-11-06T04:22:22.169Z,955.5825195
2022-11-06T04:23:22.782Z,955.5384521
2022-11-06T04:24:23.440Z,955.512207
2022-11-06T04:25:24.043Z,955.5296631
2022-11-06T04:26:24.628Z,955.4798584
2022-11-06T04:27:25.219Z,955.5248413
2022-11-06T04:28:26.799Z,955.4663086
2022-11-06T04:29:27.418Z,955.4291382
2022-11-06T04:30:29.054Z,955.446106
2022-11-06T04:31:29.624Z,955.4978027
2022-11-06T04:32:30.230Z,955.5653687
2022-11-06T04:33:30.856Z,955.5593872
2022-11-06T04:34:31.609Z,955.5482788
2022-11-06T04:35:32.288Z,955.5925903
2022-11-06T04:36:32.879Z,955.5812378
2022-11-06T04:37:33.493Z,955.6141968
2022-11-06T04:38:34.088Z,955.5932617
2022-11-06T04:39:35.735Z,955.5708618
2022-11-06T04:41:07.390Z,955.5197754
2022-11-06T04:42:07.964Z,955.5910645
2022-11-06T04:43:08.627Z,955.5764771
2022-11-06T04:44:09.260Z,955.5268555
2022-11-06T04:45:09.858Z,955.5818481
2022-11-06T04:46:10.556Z,955.5227051
2022-11-06T04:47:11.129Z,955.5310669
2022-11-06T04:48:12.170Z,955.4784546
2022-11-06T04:49:12.491Z,955.3864136
2022-11-06T04:50:13.103Z,955.4013062
2022-11-06T04:51:14.324Z,955.3378296
2022-11-06T04:52:14.967Z,955.3237305
2022-11-06T04:53:15.614Z,955.3377075
2022-11-06T04:54:16.213Z,955.3115845
2022-11-06T04:55:16.904Z,955.3495483
2022-11-06T04:56:21.249Z,955.3284912
2022-11-06T04:57:18.236Z,955.3512573
2022-11-06T04:58:19.787Z,955.3481445
2022-11-06T04:59:20.921Z,955.4249878
2022-11-06T05:00:22.494Z,955.4334106
2022-11-06T05:01:23.345Z,955.4509888
2022-11-06T05:02:23.811Z,955.4537354
2022-11-06T05:03:24.377Z,955.4440918
2022-11-06T05:04:25.054Z,955.3920288
2022-11-06T05:05:25.740Z,955.3130493
2022-11-06T05:06:29.928Z,955.2407837
2022-11-06T05:07:27.042Z,955.2267456
2022-11-06T05:08:27.623Z,955.2445068
2022-11-06T05:09:28.264Z,955.2279663
2022-11-06T05:10:29.512Z,955.2546997
2022-11-06T05:11:30.214Z,955.2290039
2022-11-06T05:12:30.877Z,955.2506104
2022-11-06T05:13:31.500Z,955.2779541
2022-11-06T05:14:32.125Z,955.2720337
2022-11-06T05:15:32.781Z,955.2956543
2022-11-06T05:16:33.590Z,955.3547363
2022-11-06T05:17:36.651Z,955.3911133
2022-11-06T05:19:05.947Z,955.4185791
2022-11-06T05:20:06.569Z,955.4353027
2022-11-06T05:21:07.966Z,955.380249
2022-11-06T05:22:08.647Z,955.4070435
2022-11-06T05:23:09.315Z,955.3428345
2022-11-06T05:24:09.971Z,955.2817383
2022-11-06T05:25:10.618Z,955.2496948
2022-11-06T05:26:11.452Z,955.203064
2022-11-06T05:27:12.145Z,955.2698364
2022-11-06T05:28:13.695Z,955.242981
2022-11-06T05:29:13.986Z,955.2633057
2022-11-06T05:30:14.619Z,955.2704468
2022-11-06T05:31:15.846Z,955.2471924
2022-11-06T05:32:16.535Z,955.2223511
2022-11-06T05:33:17.204Z,955.2138062
2022-11-06T05:34:17.862Z,955.2084961
2022-11-06T05:35:18.522Z,955.2558594
2022-11-06T05:36:19.106Z,955.2745361
2022-11-06T05:37:19.826Z,955.2315674
2022-11-06T05:38:20.886Z,955.1657715
2022-11-06T05:39:21.487Z,955.1601563
2022-11-06T05:40:22.868Z,955.1271973
2022-11-06T05:41:24.339Z,955.1132813
2022-11-06T05:42:25.072Z,955.124939
2022-11-06T05:43:25.669Z,955.147583
2022-11-06T05:44:26.336Z,955.1617432
2022-11-06T05:45:26.999Z,955.1528931
2022-11-06T05:46:47.792Z,955.2028198
2022-11-06T05:47:28.237Z,955.1682739
2022-11-06T05:48:28.935Z,955.1994019
2022-11-06T05:49:29.535Z,955.1096802
2022-11-06T05:50:30.202Z,955.1499023
2022-11-06T05:51:31.821Z,955.1022949
2022-11-06T05:52:32.472Z,955.0907593
2022-11-06T05:53:33.078Z,955.0402832
2022-11-06T05:54:33.693Z,954.9710693
2022-11-06T05:56:04.895Z,954.9291992
2022-11-06T05:57:05.502Z,954.8609619
2022-11-06T05:58:07.039Z,954.878418
2022-11-06T05:59:07.621Z,954.8613281
2022-11-06T06:00:08.256Z,954.8428345
2022-11-06T06:01:09.505Z,954.8519287
2022-11-06T06:02:10.228Z,954.842041
2022-11-06T06:03:10.860Z,954.8306274
2022-11-06T06:04:11.418Z,954.8460083
2022-11-06T06:05:12.132Z,954.8474731
2022-11-06T06:06:12.760Z,954.8683472
2022-11-06T06:07:13.375Z,954.7910156
2022-11-06T06:08:14.410Z,954.8013916
2022-11-06T06:09:14.694Z,954.8156738
2022-11-06T06:10:16.123Z,954.7888794
2022-11-06T06:11:16.774Z,954.7583618
2022-11-06T06:12:18.021Z,954.7945557
2022-11-06T06:13:18.684Z,954.8084106
2022-11-06T06:14:19.327Z,954.7952881
2022-11-06T06:15:19.993Z,954.7764282
2022-11-06T06:16:20.921Z,954.7230225
2022-11-06T06:17:21.578Z,954.6726685
2022-11-06T06:18:22.285Z,954.7042847
2022-11-06T06:19:22.903Z,954.7059326
2022-11-06T06:20:23.499Z,954.6709595
2022-11-06T06:21:24.864Z,954.6741333
2022-11-06T06:22:25.527Z,954.6378174
2022-11-06T06:23:26.232Z,954.6311035
2022-11-06T06:24:26.845Z,954.5847778
2022-11-06T06:25:28.101Z,954.5012207
2022-11-06T06:26:28.713Z,954.4902954
2022-11-06T06:27:29.398Z,954.5075073
2022-11-06T06:28:30.173Z,954.4547119
2022-11-06T06:29:30.843Z,954.4782715
2022-11-06T06:30:31.414Z,954.491333
2022-11-06T06:31:32.910Z,954.4821167
2022-11-06T06:32:33.924Z,954.491394
2022-11-06T06:34:05.129Z,954.4564209
2022-11-06T06:35:05.744Z,954.4885864
2022-11-06T06:36:06.393Z,954.519165
2022-11-06T06:37:07.084Z,954.5181274
2022-11-06T06:38:07.725Z,954.4943848
2022-11-06T06:39:08.402Z,954.480835
2022-11-06T06:40:10.014Z,954.4915771
2022-11-06T06:41:11.511Z,954.5037231
2022-11-06T06:42:12.149Z,954.4984131
2022-11-06T06:43:12.792Z,954.5152588
2022-11-06T06:44:13.536Z,954.532959
2022-11-06T06:45:14.999Z,954.5108643
2022-11-06T06:46:15.586Z,954.5356445
2022-11-06T06:47:16.317Z,954.4868774
2022-11-06T06:48:17.133Z,954.4714355
2022-11-06T06:49:17.680Z,954.4681396
2022-11-06T06:50:18.324Z,954.4362793
2022-11-06T06:51:23.739Z,954.453186
2022-11-06T06:52:20.173Z,954.4646606
2022-11-06T06:53:21.157Z,954.4007568
2022-11-06T06:54:21.889Z,954.3948975
2022-11-06T06:55:22.485Z,954.4083862
2022-11-06T06:56:23.196Z,954.406189
2022-11-06T06:57:23.901Z,954.4255981
2022-11-06T06:58:25.889Z,954.4293823
2022-11-06T06:59:26.244Z,954.4487305
2022-11-06T07:00:26.891Z,954.4570313
2022-11-06T07:01:28.133Z,954.4885864
2022-11-06T07:02:28.672Z,954.4040527
2022-11-06T07:03:29.430Z,954.3376465
2022-11-06T07:04:30.146Z,954.3254395
2022-11-06T07:05:30.841Z,954.3139038
2022-11-06T07:06:32.016Z,954.289978
2022-11-06T07:07:32.773Z,954.2862549
2022-11-06T07:09:04.049Z,954.2134399
2022-11-06T07:10:04.776Z,954.1947021
2022-11-06T07:11:05.351Z,954.1905518
2022-11-06T07:12:06.792Z,954.1960449
2022-11-06T07:13:07.446Z,954.2332764
2022-11-06T07:14:08.081Z,954.2575073
2022-11-06T07:15:08.753Z,954.2896729
2022-11-06T07:16:09.409Z,954.324707
2022-11-06T07:17:10.038Z,954.3703003
2022-11-06T07:18:10.976Z,954.3950195
2022-11-06T07:19:11.484Z,954.3939209
2022-11-06T07:20:12.160Z,954.4156494
2022-11-06T07:21:12.804Z,954.3796997
2022-11-06T07:22:14.383Z,954.376709
2022-11-06T07:23:14.952Z,954.3537598
2022-11-06T07:24:15.641Z,954.3651733
2022-11-06T07:25:17.048Z,954.4059448
2022-11-06T07:26:17.698Z,954.369873
2022-11-06T07:27:18.464Z,954.369873
2022-11-06T07:28:19.563Z,954.3538818
2022-11-06T07:29:19.794Z,954.375
2022-11-06T07:30:20.880Z,954.3856812
2022-11-06T07:31:22.540Z,954.4004517
2022-11-06T07:32:23.227Z,954.4003906
2022-11-06T07:33:23.893Z,954.3510132
2022-11-06T07:34:24.532Z,954.3417358
2022-11-06T07:35:25.255Z,954.3696899
2022-11-06T07:36:25.941Z,954.3345337
2022-11-06T07:37:26.634Z,954.3364258
2022-11-06T07:38:27.247Z,954.3128662
2022-11-06T07:39:27.905Z,954.3340454
2022-11-06T07:40:29.569Z,954.3161621
2022-11-06T07:41:30.988Z,954.3173218
2022-11-06T07:42:31.644Z,954.276123
2022-11-06T07:43:32.231Z,954.2332764
2022-11-06T07:45:03.606Z,954.2547607
2022-11-06T07:46:04.305Z,954.194458
2022-11-06T07:47:04.977Z,954.2409668
2022-11-06T07:48:05.701Z,954.2451782
2022-11-06T07:49:06.314Z,954.2892456
2022-11-06T07:50:06.929Z,954.3601074
2022-11-06T07:51:07.637Z,954.4174805
2022-11-06T07:52:08.886Z,954.4520874
2022-11-06T07:53:09.547Z,954.506897
2022-11-06T07:54:10.192Z,954.600708
2022-11-06T07:55:11.311Z,954.6826782
2022-11-06T07:56:12.033Z,954.6972656
2022-11-06T07:57:12.698Z,954.7401733
2022-11-06T07:58:13.645Z,954.7589111
2022-11-06T07:59:14.045Z,954.7223511
2022-11-06T08:00:14.735Z,954.6445923
2022-11-06T08:01:18.308Z,954.6239014
2022-11-06T08:02:16.984Z,954.607666
2022-11-06T08:03:17.605Z,954.5362549
2022-11-06T08:04:18.271Z,954.5010376
2022-11-06T08:05:18.906Z,954.3798218
2022-11-06T08:06:19.588Z,954.3815918
2022-11-06T08:07:20.344Z,954.3244019
2022-11-06T08:08:21.132Z,954.2453003
2022-11-06T08:09:21.720Z,954.2307739
2022-11-06T08:10:22.347Z,954.1890869
2022-11-06T08:11:23.007Z,954.1294556
2022-11-06T08:12:24.489Z,954.138855
2022-11-06T08:13:25.148Z,954.1311035
2022-11-06T08:14:25.777Z,954.0778809
2022-11-06T08:15:26.363Z,954.0879517
2022-11-06T08:16:27.083Z,954.1179199
2022-11-06T08:17:27.816Z,954.1573486
2022-11-06T08:18:29.298Z,954.1799316
2022-11-06T08:19:29.999Z,954.2075195
2022-11-06T08:20:30.638Z,954.2841187
2022-11-06T08:21:31.288Z,954.2173462
2022-11-06T08:23:03.240Z,954.2190552
2022-11-06T08:24:03.881Z,954.1771851
2022-11-06T08:25:04.580Z,954.1403198
2022-11-06T08:26:05.242Z,954.1159668
2022-11-06T08:27:05.856Z,954.1245117
2022-11-06T08:28:06.500Z,954.1257935
2022-11-06T08:29:07.082Z,954.1496582
2022-11-06T08:30:07.768Z,954.1681519
2022-11-06T08:31:08.356Z,954.1359863
2022-11-06T08:32:09.567Z,954.1367188
2022-11-06T08:33:10.182Z,954.1606445
2022-11-06T08:34:10.798Z,954.116394
2022-11-06T08:35:11.653Z,954.1298218
2022-11-06T08:36:12.883Z,954.1358643
2022-11-06T08:37:13.565Z,954.1066895
2022-11-06T08:38:15.097Z,954.1154175
2022-11-06T08:39:15.526Z,954.1204834
2022-11-06T08:40:17.036Z,954.1603394
2022-11-06T08:41:17.678Z,954.1889038
2022-11-06T08:42:18.894Z,954.1685791
2022-11-06T08:43:19.520Z,954.2059326
2022-11-06T08:44:20.235Z,954.1276855
2022-11-06T08:45:21.142Z,954.0752563
2022-11-06T08:46:21.828Z,954.0663452
2022-11-06T08:47:22.499Z,953.9939575
2022-11-06T08:48:23.149Z,954.0418701
2022-11-06T08:49:23.758Z,954.0028687
2022-11-06T08:50:24.483Z,953.970459
2022-11-06T08:51:25.122Z,953.9693604
2022-11-06T08:52:31.224Z,953.9067383
2022-11-06T08:53:27.068Z,953.9181519
2022-11-06T08:54:27.595Z,953.871582
2022-11-06T08:55:28.277Z,953.857605
2022-11-06T08:56:28.846Z,953.8481445
2022-11-06T08:57:29.471Z,953.7966919
2022-11-06T08:58:30.049Z,953.7919312
2022-11-06T08:59:31.383Z,953.7890015
2022-11-06T09:01:02.742Z,953.7860718
2022-11-06T09:02:04.191Z,953.7896729
2022-11-06T09:03:04.784Z,953.8143921
2022-11-06T09:04:05.488Z,953.8370361
2022-11-06T09:05:06.143Z,953.8270264
2022-11-06T09:06:06.778Z,953.8754883
2022-11-06T09:07:07.362Z,953.9229736
2022-11-06T09:08:08.057Z,953.8963013
2022-11-06T09:09:08.566Z,953.8995361
2022-11-06T09:10:09.228Z,953.930603
2022-11-06T09:11:10.511Z,953.9397583
2022-11-06T09:12:11.998Z,953.9525146
2022-11-06T09:13:12.991Z,953.9589233
2022-11-06T09:14:13.337Z,953.9606323
2022-11-06T09:15:14.008Z,953.9665527
2022-11-06T09:16:16.227Z,953.9735718
2022-11-06T09:17:15.395Z,953.9467773
2022-11-06T09:18:16.056Z,953.8953857
2022-11-06T09:19:16.718Z,953.8563232
2022-11-06T09:20:17.418Z,953.7543945
2022-11-06T09:21:18.044Z,953.7572021
2022-11-06T09:22:19.537Z,953.7079468
2022-11-06T09:23:20.154Z,953.6951294
2022-11-06T09:24:37.282Z,953.7139893
2022-11-06T09:25:21.618Z,953.6453247
2022-11-06T09:26:22.347Z,953.6600952
2022-11-06T09:27:23.052Z,953.6317139
2022-11-06T09:28:23.727Z,953.6138916
2022-11-06T09:29:24.314Z,953.6853027
2022-11-06T09:30:25.000Z,953.6595459
2022-11-06T09:31:25.645Z,953.6018677
2022-11-06T09:32:27.008Z,953.6331787
2022-11-06T09:33:27.605Z,953.6245117
2022-11-06T09:34:28.157Z,953.6210938
2022-11-06T09:35:29.536Z,953.6149902
2022-11-06T09:36:30.239Z,953.5681152
2022-11-06T09:37:30.928Z,953.5501709
2022-11-06T09:39:02.354Z,953.5092163
2022-11-06T09:40:06.334Z,953.4616699
2022-11-06T09:41:03.668Z,953.4593506
2022-11-06T09:42:04.348Z,953.4354858
2022-11-06T09:43:05.827Z,953.4718018
2022-11-06T09:44:06.656Z,953.4693604
2022-11-06T09:45:07.013Z,953.4854736
2022-11-06T09:46:07.640Z,953.4597168
2022-11-06T09:47:08.337Z,953.4937744
2022-11-06T09:48:09.038Z,953.4863892
2022-11-06T09:49:09.779Z,953.5488892
2022-11-06T09:50:10.347Z,953.5357666
2022-11-06T09:51:10.915Z,953.5628662
2022-11-06T09:52:11.624Z,953.5431519
2022-11-06T09:53:12.881Z,953.5524902
2022-11-06T09:54:13.450Z,953.565918
2022-11-06T09:55:14.107Z,953.5588989
2022-11-06T09:56:15.289Z,953.5678101
2022-11-06T09:57:15.892Z,953.5412598
2022-11-06T09:58:16.789Z,953.5401611
2022-11-06T09:59:17.224Z,953.5703125
2022-11-06T10:00:17.771Z,953.5575562
2022-11-06T10:01:24.485Z,953.5383301
2022-11-06T10:02:20.694Z,953.479248
2022-11-06T10:03:21.139Z,953.451416
2022-11-06T10:04:21.827Z,953.4328613
2022-11-06T10:05:22.315Z,953.4675293
2022-11-06T10:06:22.897Z,953.4261475
2022-11-06T10:07:23.433Z,953.4519043
2022-11-06T10:08:24.157Z,953.4564209
2022-11-06T10:09:24.787Z,953.4271851
2022-11-06T10:10:25.353Z,953.413269
2022-11-06T10:11:25.978Z,953.3610229
2022-11-06T10:12:27.494Z,953.3467407
2022-11-06T10:13:28.176Z,953.2926636
2022-11-06T10:14:28.762Z,953.3225098
2022-11-06T10:15:29.390Z,953.3295288
2022-11-06T10:16:30.000Z,953.3093872
2022-11-06T10:17:30.562Z,953.3251343
2022-11-06T10:19:01.707Z,953.3371582
2022-11-06T10:20:02.462Z,953.3259277
2022-11-06T10:21:03.026Z,953.2828369
2022-11-06T10:22:03.701Z,953.2379761
2022-11-06T10:23:05.268Z,953.2295532
2022-11-06T10:24:05.982Z,953.2177124
2022-11-06T10:25:06.664Z,953.2215576
2022-11-06T10:26:07.280Z,953.1679077
2022-11-06T10:27:07.880Z,953.1176758
2022-11-06T10:28:08.434Z,953.1860352
2022-11-06T10:29:09.041Z,953.163147
2022-11-06T10:30:10.329Z,953.1507568
2022-11-06T10:31:10.836Z,953.1348267
2022-11-06T10:32:11.396Z,953.1120605
2022-11-06T10:33:12.763Z,953.1390381
2022-11-06T10:34:13.386Z,953.0762329
2022-11-06T10:35:13.982Z,953.1204834
2022-11-06T10:36:14.624Z,953.0540771
2022-11-06T10:37:15.175Z,953.076355
2022-11-06T10:38:16.057Z,953.0737305
2022-11-06T10:39:16.221Z,953.1251831
2022-11-06T10:40:16.843Z,953.1461182
2022-11-06T10:41:17.989Z,953.2033081
2022-11-06T10:42:18.590Z,953.1610718
2022-11-06T10:43:19.727Z,953.130127
2022-11-06T10:44:20.276Z,953.1003418
2022-11-06T10:45:21.152Z,953.079834
2022-11-06T10:46:21.714Z,953.0042725
2022-11-06T10:47:22.345Z,952.9898682
2022-11-06T10:48:27.399Z,952.9782715
2022-11-06T10:49:23.467Z,953.0079956
2022-11-06T10:50:24.008Z,953.0415039
2022-11-06T10:51:24.644Z,953.008728
2022-11-06T10:52:25.214Z,953.0610352
2022-11-06T10:53:26.853Z,953.0273438
2022-11-06T10:54:27.418Z,953.0456543
2022-11-06T10:55:27.949Z,953.0303345
2022-11-06T10:56:28.516Z,953.0549927
2022-11-06T10:57:29.096Z,953.017334
2022-11-06T10:58:29.709Z,953.0093994
2022-11-06T10:59:30.756Z,952.9827881
2022-11-06T11:01:01.687Z,953.0123291
2022-11-06T11:02:03.279Z,953.0314331
2022-11-06T11:03:03.517Z,953.0053101
2022-11-06T11:04:04.063Z,952.9753418
2022-11-06T11:05:04.597Z,952.9338379
2022-11-06T11:06:05.171Z,952.8646851
2022-11-06T11:07:05.722Z,952.8701782